Pagina principală
METAR-TAF:

METAR-TAF

Aeroporturi :

Sherman-Denison, Texas, Statele Unite ale Americii

Latitudine: 33-43N, longitudine: 096-40W, elevație: 228 m

Observații meteo curente

Raportul a fost făcut în urmă cu 1 oră și 11 de minute, la 22:50 UTC
Vânt 18 kt de la Sud-est cu rafale de până la 22 kt
Temperatură 34°C
Umiditate 39%
Presiune 1012 hPa
Vizibilitate: 16.1 km
Cer senin

METAR: KGYI 182250Z 13018G22KT 10SM CLR 34/18 A2987

Ora: 19:01 (00:01 UTC)


TAF: lipsă

Observații și prognoze meteo pentru peste 4.000 de aeroporturi (rapoarte METAR și TAF).

Stațiile disponibile sunt reprezentate pe hartă prin puncte galbene și roșii.

Țineți indicatorul mouse-ului pe punctul dorit pentru a vedea denumirea stației.

Apoi, faceți clic pentru a vedea observațiile și prognozele meteorologice.

Pentru a schimba harta: Pentru mărire, faceți clic pe butoanele verzi cu cruce neagră; pentru micșorare, pe butonul verde cu o liniuță; pentru hărți învecinate, pe săgețile verzi.


METAR-TAF: